Indian Springs, Nevada Weather observations

Data are for observation ending at time listed.
 Day   Time    Ave.   Ave.  Ave.  Vector   Max.   Stn.    Total    Solar   Ave.  
  of    of     Air    Rel.  Wind   Wind    Wind   Baro.  Precip.   Rad.    Soil  
Year   Day     Temp.  Hum.  Speed  Dir.    Gust   Pres.                    Temp. 
2016   (PST)    F      %     mph   deg.    mph     mb.     in.     W/m2     F   
------------------------------------------------------------------------------
 144    7:40   68.8    17    0.7   326      2.0   902.2    0.00     649    72.2
 144    7:50   70.2    16    0.5   339      2.0   902.4    0.00     684    72.4
 144    8:00   70.3    16    1.5    30      3.6   902.5    0.00     720    72.7
 144    8:10   69.2    18    1.8    13      5.8   902.5    0.00     755    73.0
 144    8:20   69.3    17    2.1    42      6.6   902.4    0.00     785    73.3
 144    8:30   70.1    17    1.7    22      4.0   902.2    0.00     813    73.7
 144    8:40   70.2    17    2.0    58      5.3   902.5    0.00     838    74.0
 144    8:50   71.1    16    1.9    54      4.7   902.5    0.00     866    74.4
 144    9:00   70.2    16    2.5    48      6.9   902.7    0.00     891    74.7
 144    9:10   70.5    16    4.1    84      9.7   902.5    0.00     910    75.1
 144    9:20   70.4    16    3.4    92      8.7   902.6    0.00     930    75.6
 144    9:30   70.5    16    4.6    89     11.4   902.4    0.00     954    76.0
 144    9:40   71.1    16    4.3    75     11.8   902.5    0.00     975    76.4
 144    9:50   71.6    15    4.3    82     10.8   902.3    0.00     995    76.9
 144   10:00   72.5    15    1.7   133      4.7   902.2    0.00    1008    77.3
 144   10:10   72.6    15    4.4    84      9.1   902.3    0.00    1028    77.7
 144   10:20   73.2    15    3.2    80      9.3   902.3    0.00    1032    78.2
 144   10:30   73.2    15    2.9   157     10.4   902.3    0.00    1050    78.6
 144   10:40   73.4    16    4.3    78      9.9   902.4    0.00    1064    79.1
 144   10:50   74.2    15    2.4    12      6.5   902.2    0.00    1040    79.6
 144   11:00   75.0    15    2.7    92      7.9   902.1    0.00    1080    80.1
 144   11:10   74.6    16    2.1   101     11.2   902.1    0.00    1054    80.6
 144   11:20   75.4    17    4.1   104     11.4   901.6    0.00    1088    81.1
 144   11:30   74.2    17    5.1    81     13.7   901.8    0.00     781    81.6
 144   11:40   75.5    16    5.9   101     14.7   901.4    0.00    1109    82.0
 144   11:50   75.9    15    7.0    84     18.0   901.2    0.00    1106    82.5
 144   12:00   76.3    15    6.2   105     16.8   901.1    0.00    1083    82.9
 144   12:10   75.6    15    6.4    94     16.3   901.1    0.00    1027    83.4
 144   12:20   76.9    14    4.4   110     10.9   900.7    0.00     848    83.8
 144   12:30   75.5    14    5.3    93     14.8   900.6    0.00     784    84.2
 144   12:40   76.8    13    4.2   117     16.8   900.5    0.00    1079    84.5
 144   12:50   76.9    13    2.3   144      6.4   900.4    0.00     661    84.8
 144   13:00   75.8    13    5.0    87     16.7   900.2    0.00     193    85.2
 144   13:10   74.9    13    6.2    90     16.7   899.9    0.00     184    85.5
 144   13:20   75.8    12    7.3    89     14.4   899.8    0.00     184    85.8
 144   13:30   76.3    12    5.4    92     14.8   899.5    0.00     312    86.0
 144   13:40   77.8    11    5.6    98     12.7   899.3    0.00     229    86.2
 144   13:50   77.8    11    5.4    85     14.5   899.4    0.00     630    86.3
 144   14:00   77.9    11    3.3    90      9.3   899.5    0.00     954    86.4
 144   14:10   78.5    11    4.2    89     11.9   899.3    0.00     916    86.4
 144   14:20   78.1    11    5.7    82     13.7   899.3    0.00     856    86.5
 144   14:30   78.1    11    3.7   139     10.0   899.1    0.00     877    86.5
 144   14:40   78.8    11    3.4   132      9.2   899.5    0.00     827    86.7
 144   14:50   78.7    11    3.1    40      7.2   899.4    0.00     804    86.8
 144   15:00   79.0    11    1.8   300      5.0   899.0    0.00     789    87.1
 144   15:10   79.6    11    2.9   284      9.2   899.1    0.00     660    87.2
 144   15:20   78.9    10    4.6   274     11.0   899.3    0.00     710    87.4
 144   15:30   78.3    10    8.6   233     19.1   898.9    0.00     679    87.6
 144   15:40   78.1    10    9.5   237     18.6   898.7    0.00     648    87.8
 144   15:50   78.0    10    7.2   248     16.2   898.6    0.00     613    88.0
 144   16:00   77.8    10    6.1   242     12.0   898.4    0.00     578    88.1
 144   16:10   77.5    10    8.5   234     15.6   898.4    0.00     543    88.2
 144   16:20   77.6    11    8.6   242     16.3   898.1    0.00     503    88.3
 144   16:30   77.0    11    9.8   234     16.3   898.1    0.00     465    88.3
 144   16:40   77.1    11    8.6   234     14.3   898.0    0.00     425    88.3
 144   16:50   76.8    11    9.2   231     14.5   897.9    0.00     386    88.3
 144   17:00   76.2    11    9.4   222     17.7   897.9    0.00     346    88.1
 144   17:10   76.0    11    9.5   224     18.6   897.8    0.00     308    88.0
 144   17:20   75.7    11   10.0   229     17.7   897.8    0.00     270    87.8
 144   17:30   75.4    11    8.6   232     16.7   897.7    0.00     233    87.6
 144   17:40   75.0    12    7.8   228     16.0   897.6    0.00     197    87.3
 144   17:50   74.8    12    8.3   230     16.9   897.5    0.00     162    87.1
 144   18:00   74.0    12    9.5   216     16.7   897.6    0.00     132    86.8
 144   18:10   73.3    12   10.3   222     20.0   897.0    0.00      96    86.6
 144   18:20   73.2    12    8.6   227     15.3   897.3    0.00      62    86.4
 144   18:30   72.9    12    8.4   218     16.4   897.3    0.00      34    86.1
 144   18:40   72.5    12    6.0   221     12.6   897.2    0.00      16    85.9
 144   18:50   72.0    13    7.3   211     14.0   897.3    0.00       7    85.6
 144   19:00   71.6    13    7.6   222     12.8   896.9    0.00       1    85.3
 144   19:10   71.3    13    7.4   216     14.2   897.2    0.00       0    85.1
 144   19:20   71.1    14    7.9   222     14.6   897.0    0.00       0    84.8
 144   19:30   70.9    14    8.0   221     17.5   897.0    0.00       0    84.5
 144   19:40   70.7    14    7.0   218     13.7   897.3    0.00       0    84.2
 144   19:50   70.3    15    5.8   217     12.3   897.2    0.00       0    84.0
 144   20:00   70.2    16    4.2   217      8.5   897.2    0.00       0    83.7
 144   20:10   69.9    16    3.8   194      7.2   897.3    0.00       0    83.4
 144   20:20   70.0    16    5.4   215     10.7   897.3    0.00       0    83.2
 144   20:30   69.8    17    3.2   198      7.5   897.5    0.00       0    82.9
 144   20:40   69.2    17    1.2     9      4.1   897.7    0.00       0    82.6
 144   20:50   68.3    17    1.6   358      4.0   897.8    0.00       0    82.4
 144   21:00   68.1    17    0.5    65      3.7   897.9    0.00       0    82.1
 144   21:10   68.1    18    1.2   224      4.6   897.7    0.00       0    81.9
 144   21:20   68.6    17    1.1     3      2.8   897.6    0.00       0    81.6
 144   21:30   69.0    19    2.2   300      4.3   897.6    0.00       0    81.4
 144   21:40   68.5    19    0.4   234      1.7   897.5    0.00       0    81.1
 144   21:50   67.1    20    0.3   152      2.1   897.5    0.00       0    80.9
 144   22:00   66.1    20    2.2   297      5.6   897.4    0.00       0    80.7
 144   22:10   66.3    21    0.9   204      3.4   897.2    0.00       0    80.4
 144   22:20   67.1    22    4.1   285     10.4   897.2    0.00       0    80.2
 144   22:30   68.2    20    3.5   247      7.5   897.3    0.00       0    80.0
 144   22:40   65.7    22    3.2    48      8.2   897.3    0.00       0    79.7
 144   22:50   64.7    24    3.8    30      9.0   897.3    0.00       0    79.5
 144   23:00   64.9    25    3.3    38      7.7   897.3    0.00       0    79.3
 144   23:10   65.6    24    1.8    60      6.8   897.3    0.00       0    79.1
 144   23:20   64.9    24    2.1   192      4.8   897.4    0.00       0    78.9
 144   23:30   65.0    24    1.5   155      3.4   897.2    0.00       0    78.8
 144   23:40   64.7    24    2.0   230      4.3   897.5    0.00       0    78.6
 144   23:50   65.0    21    5.9   242     13.5   897.0    0.00       0    78.4
 145    0:00   65.1    22    4.4   256      8.5   897.2    0.00       0    78.2
 145    0:10   64.3    24    4.4   265      8.4   897.1    0.00       0    78.0
 145    0:20   63.8    25    4.3   260      7.7   897.3    0.00       0    77.8
 145    0:30   64.2    25    6.7   243     13.9   896.8    0.00       0    77.6
 145    0:40   64.5    24    5.7   239     14.5   897.3    0.00       0    77.5
 145    0:50   64.8    24    2.6   201      5.4   897.4    0.00       0    77.3
 145    1:00   64.0    25    1.1    22      2.7   897.3    0.00       0    77.1
 145    1:10   63.2    26    0.7   141      2.5   897.2    0.00       0    76.9
 145    1:20   62.1    27    0.8   258      3.8   897.2    0.00       0    76.8
 145    1:30   63.8    23    3.7   207     11.8   896.7    0.00       0    76.6
 145    1:40   63.3    25    2.8   192      5.8   897.0    0.00       0    76.4
 145    1:50   63.6    24    4.7   182      9.2   896.9    0.00       0    76.3
 145    2:00   63.5    25    3.4   188      5.6   897.0    0.00       0    76.1
 145    2:10   63.1    25    4.8   190      6.4   897.1    0.00       0    75.9
 145    2:20   63.1    25    4.8   190      8.7   897.2    0.00       0    75.8
 145    2:30   63.9    24    4.1   182      8.3   897.1    0.00       0    75.6
 145    2:40   63.2    25    3.6   187      6.9   897.1    0.00       0    75.5
 145    2:50   63.1    25    2.8   179      5.1   897.2    0.00       0    75.3
 145    3:00   62.6    25    1.8   183      3.5   897.0    0.00       0    75.2
 145    3:10   64.1    19    2.1   188      6.9   897.1    0.00       0    75.0
 145    3:20   64.8    20    2.3   211      6.8   897.1    0.00       0    74.9
 145    3:30   62.9    22    1.5   214      4.2   897.1    0.00       0    74.8
 145    3:40   61.8    23    1.6    61      4.2   897.0    0.00       0    74.6
 145    3:50   60.0    26    1.4    77      4.1   896.9    0.00       0    74.5
 145    4:00   58.6    28    1.2    88      2.5   896.9    0.00       0    74.4
 145    4:10   58.8    28    1.4   191      3.0   897.1    0.00       0    74.2
 145    4:20   57.6    30    1.9    94      3.5   897.0    0.00       0    74.1
 145    4:30   57.7    30    1.3    32      3.7   897.1    0.00       3    73.9
 145    4:40   58.0    28    2.3    23      8.3   897.1    0.00       8    73.8
 145    4:50   59.7    26    3.4   346      9.1   897.2    0.00      18    73.6
 145    5:00   56.7    30    2.8     7      6.3   897.3    0.00      46    73.4
 145    5:10   56.7    30    2.7    22      7.3   897.3    0.00      78    73.3
 145    5:20   58.2    30    2.6     7      7.9   897.3    0.00     117    73.1
 145    5:30   59.5    29    1.9    33      6.9   897.7    0.00     157    73.0
 145    5:40   60.5    29    1.5    44      3.5   898.0    0.00     189    72.8
 145    5:50   59.6    31    3.7    34      9.9   898.2    0.00     231    72.7
 145    6:00   60.4    31    3.2    34      9.2   898.5    0.00     267    72.6
 145    6:10   61.2    29    3.4    33      8.4   898.6    0.00     307    72.5
 145    6:20   60.9    30    4.3    32      9.1   898.7    0.00     345    72.4
 145    6:30   61.7    30    4.0    24     11.7   899.3    0.00     382    72.4
 145    6:40   62.3    30    4.1    32      8.9   899.1    0.00     419    72.4
 145    6:50   63.0    33    3.0    53      7.7   899.3    0.00     453    72.4
 145    7:00   62.9    32    3.8    54      8.6   899.4    0.00     492    72.4
 145    7:10   63.7    31    3.1    32      8.2   899.7    0.00     532    72.5
 145    7:20   64.1    29    3.1    30      7.3   900.0    0.00     570    72.6
 145    7:30   64.3    29    3.4    48      6.9   900.1    0.00     606    72.7

Return to Indian Springs, Nevada graphs page.


Western Regional Climate Center,wrcc@dri.edu